sensor_id;sensor_type;location;lat;lon;timestamp;P1;durP1;ratioP1;P2;durP2;ratioP2
66966;SDS011;53900;51.468;-2.586;2023-05-09T00:02:03;6.45;;;3.75;;
66966;SDS011;53900;51.468;-2.586;2023-05-09T00:04:29;5.60;;;3.90;;
66966;SDS011;53900;51.468;-2.586;2023-05-09T00:06:54;5.18;;;3.63;;
66966;SDS011;53900;51.468;-2.586;2023-05-09T00:09:19;4.95;;;3.47;;
66966;SDS011;53900;51.468;-2.586;2023-05-09T00:11:44;5.50;;;3.80;;
66966;SDS011;53900;51.468;-2.586;2023-05-09T00:14:10;5.43;;;3.92;;
66966;SDS011;53900;51.468;-2.586;2023-05-09T00:16:37;5.43;;;3.65;;
66966;SDS011;53900;51.468;-2.586;2023-05-09T00:19:03;5.57;;;3.47;;
66966;SDS011;53900;51.468;-2.586;2023-05-09T00:21:28;4.47;;;3.40;;
66966;SDS011;53900;51.468;-2.586;2023-05-09T00:23:54;6.65;;;3.60;;
66966;SDS011;53900;51.468;-2.586;2023-05-09T00:26:19;4.93;;;3.50;;
66966;SDS011;53900;51.468;-2.586;2023-05-09T00:28:46;5.53;;;3.05;;
66966;SDS011;53900;51.468;-2.586;2023-05-09T00:31:11;4.00;;;2.97;;
66966;SDS011;53900;51.468;-2.586;2023-05-09T00:33:36;4.38;;;2.97;;
66966;SDS011;53900;51.468;-2.586;2023-05-09T00:36:01;4.63;;;2.88;;
66966;SDS011;53900;51.468;-2.586;2023-05-09T00:38:26;4.15;;;2.90;;
66966;SDS011;53900;51.468;-2.586;2023-05-09T00:40:52;5.03;;;2.60;;
66966;SDS011;53900;51.468;-2.586;2023-05-09T00:43:17;4.57;;;2.33;;
66966;SDS011;53900;51.468;-2.586;2023-05-09T00:45:45;3.70;;;2.63;;
66966;SDS011;53900;51.468;-2.586;2023-05-09T00:48:10;4.40;;;2.40;;
66966;SDS011;53900;51.468;-2.586;2023-05-09T00:50:36;4.22;;;2.22;;
66966;SDS011;53900;51.468;-2.586;2023-05-09T00:53:02;2.40;;;1.95;;
66966;SDS011;53900;51.468;-2.586;2023-05-09T00:55:27;3.58;;;1.75;;
66966;SDS011;53900;51.468;-2.586;2023-05-09T00:57:53;3.22;;;1.73;;
66966;SDS011;53900;51.468;-2.586;2023-05-09T01:00:18;3.90;;;2.00;;
66966;SDS011;53900;51.468;-2.586;2023-05-09T01:02:44;2.75;;;1.70;;
66966;SDS011;53900;51.468;-2.586;2023-05-09T01:05:10;2.65;;;1.50;;
66966;SDS011;53900;51.468;-2.586;2023-05-09T01:07:48;3.67;;;1.80;;
66966;SDS011;53900;51.468;-2.586;2023-05-09T01:10:18;3.90;;;1.85;;
66966;SDS011;53900;51.468;-2.586;2023-05-09T01:12:53;3.33;;;2.00;;
66966;SDS011;53900;51.468;-2.586;2023-05-09T01:15:23;2.53;;;2.13;;
66966;SDS011;53900;51.468;-2.586;2023-05-09T01:17:57;3.70;;;2.10;;
66966;SDS011;53900;51.468;-2.586;2023-05-09T01:20:42;2.58;;;2.05;;
66966;SDS011;53900;51.468;-2.586;2023-05-09T01:26:40;2.17;;;1.80;;
66966;SDS011;53900;51.468;-2.586;2023-05-09T01:31:00;2.70;;;1.80;;
66966;SDS011;53900;51.468;-2.586;2023-05-09T01:33:27;2.47;;;1.50;;
66966;SDS011;53900;51.468;-2.586;2023-05-09T01:35:57;2.20;;;1.50;;
66966;SDS011;53900;51.468;-2.586;2023-05-09T01:38:24;1.90;;;1.80;;
66966;SDS011;53900;51.468;-2.586;2023-05-09T01:40:50;3.70;;;1.70;;
66966;SDS011;53900;51.468;-2.586;2023-05-09T01:43:16;3.67;;;2.03;;
66966;SDS011;53900;51.468;-2.586;2023-05-09T01:45:43;2.40;;;1.65;;
66966;SDS011;53900;51.468;-2.586;2023-05-09T01:48:08;1.80;;;1.60;;
66966;SDS011;53900;51.468;-2.586;2023-05-09T01:50:34;2.38;;;1.92;;
66966;SDS011;53900;51.468;-2.586;2023-05-09T01:53:00;3.05;;;2.28;;
66966;SDS011;53900;51.468;-2.586;2023-05-09T01:55:28;4.60;;;2.15;;
66966;SDS011;53900;51.468;-2.586;2023-05-09T01:57:55;4.63;;;2.20;;
66966;SDS011;53900;51.468;-2.586;2023-05-09T02:00:20;2.95;;;2.15;;
66966;SDS011;53900;51.468;-2.586;2023-05-09T02:02:46;2.53;;;1.80;;
66966;SDS011;53900;51.468;-2.586;2023-05-09T02:05:12;2.30;;;2.00;;
66966;SDS011;53900;51.468;-2.586;2023-05-09T02:07:38;3.63;;;2.20;;
66966;SDS011;53900;51.468;-2.586;2023-05-09T02:10:05;2.28;;;2.08;;
66966;SDS011;53900;51.468;-2.586;2023-05-09T02:12:31;3.38;;;2.10;;
66966;SDS011;53900;51.468;-2.586;2023-05-09T02:14:56;3.88;;;2.33;;
66966;SDS011;53900;51.468;-2.586;2023-05-09T02:17:21;2.80;;;2.20;;
66966;SDS011;53900;51.468;-2.586;2023-05-09T02:19:46;3.88;;;2.42;;
66966;SDS011;53900;51.468;-2.586;2023-05-09T02:22:12;3.15;;;2.22;;
66966;SDS011;53900;51.468;-2.586;2023-05-09T02:24:37;3.35;;;2.70;;
66966;SDS011;53900;51.468;-2.586;2023-05-09T02:27:02;7.00;;;3.25;;
66966;SDS011;53900;51.468;-2.586;2023-05-09T02:29:31;4.03;;;3.30;;
66966;SDS011;53900;51.468;-2.586;2023-05-09T02:32:04;5.85;;;3.40;;
66966;SDS011;53900;51.468;-2.586;2023-05-09T02:34:30;5.82;;;3.78;;
66966;SDS011;53900;51.468;-2.586;2023-05-09T02:36:59;5.78;;;3.90;;
66966;SDS011;53900;51.468;-2.586;2023-05-09T02:39:24;4.82;;;3.72;;
66966;SDS011;53900;51.468;-2.586;2023-05-09T02:41:50;6.93;;;4.10;;
66966;SDS011;53900;51.468;-2.586;2023-05-09T02:44:15;7.40;;;4.28;;
66966;SDS011;53900;51.468;-2.586;2023-05-09T02:46:40;6.38;;;3.75;;
66966;SDS011;53900;51.468;-2.586;2023-05-09T02:49:05;6.45;;;4.13;;
66966;SDS011;53900;51.468;-2.586;2023-05-09T02:51:30;4.82;;;4.00;;
66966;SDS011;53900;51.468;-2.586;2023-05-09T02:53:56;4.82;;;3.53;;
66966;SDS011;53900;51.468;-2.586;2023-05-09T02:56:21;5.97;;;3.47;;
66966;SDS011;53900;51.468;-2.586;2023-05-09T02:58:46;6.45;;;3.38;;
66966;SDS011;53900;51.468;-2.586;2023-05-09T03:01:15;4.80;;;3.40;;
66966;SDS011;53900;51.468;-2.586;2023-05-09T03:03:40;4.93;;;3.50;;
66966;SDS011;53900;51.468;-2.586;2023-05-09T03:06:05;7.05;;;3.47;;
66966;SDS011;53900;51.468;-2.586;2023-05-09T03:08:31;4.20;;;3.10;;
66966;SDS011;53900;51.468;-2.586;2023-05-09T03:10:56;4.15;;;2.85;;
66966;SDS011;53900;51.468;-2.586;2023-05-09T03:13:21;6.45;;;2.80;;
66966;SDS011;53900;51.468;-2.586;2023-05-09T03:15:46;4.45;;;2.90;;
66966;SDS011;53900;51.468;-2.586;2023-05-09T03:18:11;4.32;;;2.63;;
66966;SDS011;53900;51.468;-2.586;2023-05-09T03:20:37;5.55;;;3.20;;
66966;SDS011;53900;51.468;-2.586;2023-05-09T03:23:02;6.30;;;3.15;;
66966;SDS011;53900;51.468;-2.586;2023-05-09T03:25:27;6.32;;;3.47;;
66966;SDS011;53900;51.468;-2.586;2023-05-09T03:27:52;4.25;;;3.47;;
66966;SDS011;53900;51.468;-2.586;2023-05-09T03:30:18;6.00;;;3.60;;
66966;SDS011;53900;51.468;-2.586;2023-05-09T03:32:43;8.43;;;3.90;;
66966;SDS011;53900;51.468;-2.586;2023-05-09T03:35:08;7.43;;;3.83;;
66966;SDS011;53900;51.468;-2.586;2023-05-09T03:37:33;8.60;;;4.18;;
66966;SDS011;53900;51.468;-2.586;2023-05-09T03:39:59;8.00;;;3.97;;
66966;SDS011;53900;51.468;-2.586;2023-05-09T03:42:24;8.52;;;3.90;;
66966;SDS011;53900;51.468;-2.586;2023-05-09T03:44:49;6.95;;;3.75;;
66966;SDS011;53900;51.468;-2.586;2023-05-09T03:47:14;7.78;;;3.95;;
66966;SDS011;53900;51.468;-2.586;2023-05-09T03:49:39;5.28;;;3.53;;
66966;SDS011;53900;51.468;-2.586;2023-05-09T03:52:05;6.55;;;3.28;;
66966;SDS011;53900;51.468;-2.586;2023-05-09T03:54:30;6.80;;;3.65;;
66966;SDS011;53900;51.468;-2.586;2023-05-09T03:56:56;6.63;;;4.15;;
66966;SDS011;53900;51.468;-2.586;2023-05-09T03:59:21;5.65;;;3.90;;
66966;SDS011;53900;51.468;-2.586;2023-05-09T04:01:46;6.88;;;4.03;;
66966;SDS011;53900;51.468;-2.586;2023-05-09T04:04:11;7.05;;;3.97;;
66966;SDS011;53900;51.468;-2.586;2023-05-09T04:06:36;6.90;;;3.92;;
66966;SDS011;53900;51.468;-2.586;2023-05-09T04:09:02;10.10;;;4.68;;
66966;SDS011;53900;51.468;-2.586;2023-05-09T04:11:27;10.25;;;4.45;;
66966;SDS011;53900;51.468;-2.586;2023-05-09T04:13:53;8.93;;;4.25;;
66966;SDS011;53900;51.468;-2.586;2023-05-09T04:16:18;6.30;;;4.50;;
66966;SDS011;53900;51.468;-2.586;2023-05-09T04:18:43;8.60;;;4.53;;
66966;SDS011;53900;51.468;-2.586;2023-05-09T04:21:08;12.85;;;5.47;;
66966;SDS011;53900;51.468;-2.586;2023-05-09T04:23:33;10.35;;;5.70;;
66966;SDS011;53900;51.468;-2.586;2023-05-09T04:25:59;10.35;;;5.35;;
66966;SDS011;53900;51.468;-2.586;2023-05-09T04:28:24;12.95;;;7.03;;
66966;SDS011;53900;51.468;-2.586;2023-05-09T04:30:50;11.13;;;5.70;;
66966;SDS011;53900;51.468;-2.586;2023-05-09T04:33:15;10.50;;;5.70;;
66966;SDS011;53900;51.468;-2.586;2023-05-09T04:35:41;13.00;;;5.90;;
66966;SDS011;53900;51.468;-2.586;2023-05-09T04:38:06;14.18;;;6.90;;
66966;SDS011;53900;51.468;-2.586;2023-05-09T04:40:31;13.15;;;6.25;;
66966;SDS011;53900;51.468;-2.586;2023-05-09T04:42:57;15.07;;;6.43;;
66966;SDS011;53900;51.468;-2.586;2023-05-09T04:45:22;13.93;;;6.68;;
66966;SDS011;53900;51.468;-2.586;2023-05-09T04:47:48;11.35;;;6.18;;
66966;SDS011;53900;51.468;-2.586;2023-05-09T04:50:13;12.02;;;5.30;;
66966;SDS011;53900;51.468;-2.586;2023-05-09T04:52:38;12.68;;;5.40;;
66966;SDS011;53900;51.468;-2.586;2023-05-09T04:55:04;15.70;;;5.85;;
66966;SDS011;53900;51.468;-2.586;2023-05-09T04:57:29;13.02;;;5.18;;
66966;SDS011;53900;51.468;-2.586;2023-05-09T04:59:54;10.85;;;5.07;;
66966;SDS011;53900;51.468;-2.586;2023-05-09T05:02:19;11.13;;;4.45;;
66966;SDS011;53900;51.468;-2.586;2023-05-09T05:04:46;9.68;;;3.78;;
66966;SDS011;53900;51.468;-2.586;2023-05-09T05:07:11;10.10;;;4.40;;
66966;SDS011;53900;51.468;-2.586;2023-05-09T05:09:36;8.48;;;4.47;;
66966;SDS011;53900;51.468;-2.586;2023-05-09T05:12:01;8.18;;;3.85;;
66966;SDS011;53900;51.468;-2.586;2023-05-09T05:14:27;10.68;;;4.20;;
66966;SDS011;53900;51.468;-2.586;2023-05-09T05:16:52;7.10;;;3.42;;
66966;SDS011;53900;51.468;-2.586;2023-05-09T05:19:17;8.40;;;3.88;;
66966;SDS011;53900;51.468;-2.586;2023-05-09T05:21:42;9.20;;;4.32;;
66966;SDS011;53900;51.468;-2.586;2023-05-09T05:24:07;8.02;;;4.10;;
66966;SDS011;53900;51.468;-2.586;2023-05-09T05:26:33;9.20;;;4.35;;
66966;SDS011;53900;51.468;-2.586;2023-05-09T05:28:58;9.82;;;4.68;;
66966;SDS011;53900;51.468;-2.586;2023-05-09T05:31:24;9.23;;;4.65;;
66966;SDS011;53900;51.468;-2.586;2023-05-09T05:33:49;10.75;;;4.72;;
66966;SDS011;53900;51.468;-2.586;2023-05-09T05:36:15;9.73;;;4.30;;
66966;SDS011;53900;51.468;-2.586;2023-05-09T05:38:40;7.93;;;4.45;;
66966;SDS011;53900;51.468;-2.586;2023-05-09T05:41:05;11.77;;;4.32;;
66966;SDS011;53900;51.468;-2.586;2023-05-09T05:43:30;12.63;;;4.10;;
66966;SDS011;53900;51.468;-2.586;2023-05-09T05:45:56;10.23;;;4.60;;
66966;SDS011;53900;51.468;-2.586;2023-05-09T05:48:21;9.75;;;4.28;;
66966;SDS011;53900;51.468;-2.586;2023-05-09T05:50:46;12.57;;;5.15;;
66966;SDS011;53900;51.468;-2.586;2023-05-09T05:53:11;9.30;;;4.93;;
66966;SDS011;53900;51.468;-2.586;2023-05-09T05:55:37;12.63;;;6.18;;
66966;SDS011;53900;51.468;-2.586;2023-05-09T05:58:02;14.02;;;6.72;;
66966;SDS011;53900;51.468;-2.586;2023-05-09T06:00:27;12.75;;;6.20;;
66966;SDS011;53900;51.468;-2.586;2023-05-09T06:02:52;13.27;;;6.28;;
66966;SDS011;53900;51.468;-2.586;2023-05-09T06:05:18;13.93;;;6.32;;
66966;SDS011;53900;51.468;-2.586;2023-05-09T06:07:43;13.68;;;6.07;;
66966;SDS011;53900;51.468;-2.586;2023-05-09T06:10:08;10.60;;;5.57;;
66966;SDS011;53900;51.468;-2.586;2023-05-09T06:12:33;16.00;;;5.53;;
66966;SDS011;53900;51.468;-2.586;2023-05-09T06:14:59;10.00;;;5.03;;
66966;SDS011;53900;51.468;-2.586;2023-05-09T06:17:24;10.15;;;5.00;;
66966;SDS011;53900;51.468;-2.586;2023-05-09T06:19:49;11.65;;;5.35;;
66966;SDS011;53900;51.468;-2.586;2023-05-09T06:22:15;11.90;;;4.70;;
66966;SDS011;53900;51.468;-2.586;2023-05-09T06:24:40;9.52;;;4.72;;
66966;SDS011;53900;51.468;-2.586;2023-05-09T06:27:05;6.57;;;3.65;;
66966;SDS011;53900;51.468;-2.586;2023-05-09T06:29:30;9.15;;;4.10;;
66966;SDS011;53900;51.468;-2.586;2023-05-09T06:31:56;12.00;;;4.65;;
66966;SDS011;53900;51.468;-2.586;2023-05-09T06:34:21;9.13;;;4.07;;
66966;SDS011;53900;51.468;-2.586;2023-05-09T06:36:46;13.50;;;4.97;;
66966;SDS011;53900;51.468;-2.586;2023-05-09T06:39:11;10.88;;;5.63;;
66966;SDS011;53900;51.468;-2.586;2023-05-09T06:41:37;15.38;;;6.45;;
66966;SDS011;53900;51.468;-2.586;2023-05-09T06:44:02;16.67;;;6.45;;
66966;SDS011;53900;51.468;-2.586;2023-05-09T06:46:28;12.00;;;5.50;;
66966;SDS011;53900;51.468;-2.586;2023-05-09T06:48:53;8.93;;;3.90;;
66966;SDS011;53900;51.468;-2.586;2023-05-09T06:51:18;5.05;;;2.85;;
66966;SDS011;53900;51.468;-2.586;2023-05-09T06:53:43;6.53;;;2.97;;
66966;SDS011;53900;51.468;-2.586;2023-05-09T06:56:08;3.83;;;1.85;;
66966;SDS011;53900;51.468;-2.586;2023-05-09T06:58:34;4.13;;;1.40;;
66966;SDS011;53900;51.468;-2.586;2023-05-09T07:01:00;2.17;;;1.40;;
66966;SDS011;53900;51.468;-2.586;2023-05-09T07:03:25;5.30;;;1.55;;
66966;SDS011;53900;51.468;-2.586;2023-05-09T07:05:50;2.97;;;1.10;;
66966;SDS011;53900;51.468;-2.586;2023-05-09T07:08:16;1.92;;;1.00;;
66966;SDS011;53900;51.468;-2.586;2023-05-09T07:10:41;1.00;;;0.80;;
66966;SDS011;53900;51.468;-2.586;2023-05-09T07:13:06;1.77;;;0.85;;
66966;SDS011;53900;51.468;-2.586;2023-05-09T07:15:32;2.42;;;0.82;;
66966;SDS011;53900;51.468;-2.586;2023-05-09T07:17:57;0.82;;;0.70;;
66966;SDS011;53900;51.468;-2.586;2023-05-09T07:20:22;2.53;;;1.05;;
66966;SDS011;53900;51.468;-2.586;2023-05-09T07:22:47;3.88;;;1.20;;
66966;SDS011;53900;51.468;-2.586;2023-05-09T07:25:12;2.88;;;1.40;;
66966;SDS011;53900;51.468;-2.586;2023-05-09T07:27:37;2.83;;;1.60;;
66966;SDS011;53900;51.468;-2.586;2023-05-09T07:30:03;3.10;;;1.40;;
66966;SDS011;53900;51.468;-2.586;2023-05-09T07:32:29;3.55;;;1.83;;
66966;SDS011;53900;51.468;-2.586;2023-05-09T07:34:54;3.10;;;1.60;;
66966;SDS011;53900;51.468;-2.586;2023-05-09T07:37:20;2.20;;;1.80;;
66966;SDS011;53900;51.468;-2.586;2023-05-09T07:39:45;3.78;;;2.05;;
66966;SDS011;53900;51.468;-2.586;2023-05-09T07:42:13;4.32;;;2.40;;
66966;SDS011;53900;51.468;-2.586;2023-05-09T07:44:39;4.53;;;2.25;;
66966;SDS011;53900;51.468;-2.586;2023-05-09T07:47:05;5.25;;;2.40;;
66966;SDS011;53900;51.468;-2.586;2023-05-09T07:49:30;4.00;;;2.00;;
66966;SDS011;53900;51.468;-2.586;2023-05-09T07:51:56;7.07;;;2.53;;
66966;SDS011;53900;51.468;-2.586;2023-05-09T07:54:21;3.65;;;1.92;;
66966;SDS011;53900;51.468;-2.586;2023-05-09T07:56:46;5.13;;;2.42;;
66966;SDS011;53900;51.468;-2.586;2023-05-09T07:59:12;5.97;;;2.35;;
66966;SDS011;53900;51.468;-2.586;2023-05-09T08:01:37;2.85;;;2.05;;
66966;SDS011;53900;51.468;-2.586;2023-05-09T08:04:02;6.28;;;2.25;;
66966;SDS011;53900;51.468;-2.586;2023-05-09T08:06:30;4.32;;;2.10;;
66966;SDS011;53900;51.468;-2.586;2023-05-09T08:08:55;5.63;;;2.03;;
66966;SDS011;53900;51.468;-2.586;2023-05-09T08:11:20;6.40;;;2.15;;
66966;SDS011;53900;51.468;-2.586;2023-05-09T08:13:46;6.68;;;2.25;;
66966;SDS011;53900;51.468;-2.586;2023-05-09T08:16:12;4.28;;;2.10;;
66966;SDS011;53900;51.468;-2.586;2023-05-09T08:18:37;4.93;;;1.77;;
66966;SDS011;53900;51.468;-2.586;2023-05-09T08:21:02;4.72;;;1.85;;
66966;SDS011;53900;51.468;-2.586;2023-05-09T08:23:28;5.07;;;1.63;;
66966;SDS011;53900;51.468;-2.586;2023-05-09T08:25:54;5.60;;;1.55;;
66966;SDS011;53900;51.468;-2.586;2023-05-09T08:28:20;4.35;;;1.42;;
66966;SDS011;53900;51.468;-2.586;2023-05-09T08:30:48;3.75;;;1.20;;
66966;SDS011;53900;51.468;-2.586;2023-05-09T08:33:13;1.55;;;1.10;;
66966;SDS011;53900;51.468;-2.586;2023-05-09T08:35:39;2.20;;;1.02;;
66966;SDS011;53900;51.468;-2.586;2023-05-09T08:38:04;2.60;;;1.00;;
66966;SDS011;53900;51.468;-2.586;2023-05-09T08:40:29;2.13;;;0.90;;
66966;SDS011;53900;51.468;-2.586;2023-05-09T08:45:25;1.15;;;0.65;;
66966;SDS011;53900;51.468;-2.586;2023-05-09T08:47:51;1.50;;;0.80;;
66966;SDS011;53900;51.468;-2.586;2023-05-09T08:50:17;1.42;;;0.70;;
66966;SDS011;53900;51.468;-2.586;2023-05-09T08:52:43;2.15;;;1.10;;
66966;SDS011;53900;51.468;-2.586;2023-05-09T08:55:08;1.33;;;0.90;;
66966;SDS011;53900;51.468;-2.586;2023-05-09T08:57:33;1.20;;;0.73;;
66966;SDS011;53900;51.468;-2.586;2023-05-09T09:00:02;2.28;;;0.85;;
66966;SDS011;53900;51.468;-2.586;2023-05-09T09:02:30;1.27;;;0.70;;
66966;SDS011;53900;51.468;-2.586;2023-05-09T09:04:56;0.75;;;0.73;;
66966;SDS011;53900;51.468;-2.586;2023-05-09T09:07:21;2.05;;;0.82;;
66966;SDS011;53900;51.468;-2.586;2023-05-09T09:09:47;1.67;;;0.93;;
66966;SDS011;53900;51.468;-2.586;2023-05-09T09:12:14;0.82;;;0.70;;
66966;SDS011;53900;51.468;-2.586;2023-05-09T09:14:41;2.20;;;0.70;;
66966;SDS011;53900;51.468;-2.586;2023-05-09T09:17:06;0.85;;;0.57;;
66966;SDS011;53900;51.468;-2.586;2023-05-09T09:19:33;1.80;;;0.60;;
66966;SDS011;53900;51.468;-2.586;2023-05-09T09:22:01;1.65;;;0.60;;
66966;SDS011;53900;51.468;-2.586;2023-05-09T09:24:26;1.23;;;0.93;;
66966;SDS011;53900;51.468;-2.586;2023-05-09T09:26:52;3.40;;;0.80;;
66966;SDS011;53900;51.468;-2.586;2023-05-09T09:29:18;1.58;;;0.90;;
66966;SDS011;53900;51.468;-2.586;2023-05-09T09:31:44;4.35;;;1.30;;
66966;SDS011;53900;51.468;-2.586;2023-05-09T09:34:10;4.35;;;1.10;;
66966;SDS011;53900;51.468;-2.586;2023-05-09T09:36:36;2.38;;;1.02;;
66966;SDS011;53900;51.468;-2.586;2023-05-09T09:39:02;4.10;;;1.25;;
66966;SDS011;53900;51.468;-2.586;2023-05-09T09:41:31;2.05;;;1.05;;
66966;SDS011;53900;51.468;-2.586;2023-05-09T09:43:56;1.05;;;0.95;;
66966;SDS011;53900;51.468;-2.586;2023-05-09T09:46:22;1.30;;;1.20;;
66966;SDS011;53900;51.468;-2.586;2023-05-09T09:48:47;1.88;;;1.20;;
66966;SDS011;53900;51.468;-2.586;2023-05-09T09:51:19;1.17;;;0.90;;
66966;SDS011;53900;51.468;-2.586;2023-05-09T09:53:45;1.45;;;0.93;;
66966;SDS011;53900;51.468;-2.586;2023-05-09T09:56:10;1.42;;;1.10;;
66966;SDS011;53900;51.468;-2.586;2023-05-09T09:58:36;1.85;;;0.90;;
66966;SDS011;53900;51.468;-2.586;2023-05-09T10:01:08;1.05;;;0.90;;
66966;SDS011;53900;51.468;-2.586;2023-05-09T10:03:43;0.98;;;0.90;;
66966;SDS011;53900;51.468;-2.586;2023-05-09T10:06:13;2.05;;;1.00;;
66966;SDS011;53900;51.468;-2.586;2023-05-09T10:08:39;2.13;;;0.80;;
66966;SDS011;53900;51.468;-2.586;2023-05-09T10:11:04;1.00;;;1.00;;
66966;SDS011;53900;51.468;-2.586;2023-05-09T10:13:30;1.10;;;1.00;;
66966;SDS011;53900;51.468;-2.586;2023-05-09T10:15:56;1.63;;;1.10;;
66966;SDS011;53900;51.468;-2.586;2023-05-09T10:18:26;1.60;;;1.10;;
66966;SDS011;53900;51.468;-2.586;2023-05-09T10:20:52;2.35;;;1.10;;
66966;SDS011;53900;51.468;-2.586;2023-05-09T10:23:17;1.77;;;1.30;;
66966;SDS011;53900;51.468;-2.586;2023-05-09T10:25:46;1.20;;;1.10;;
66966;SDS011;53900;51.468;-2.586;2023-05-09T10:28:12;1.33;;;1.08;;
66966;SDS011;53900;51.468;-2.586;2023-05-09T10:30:49;1.27;;;1.17;;
66966;SDS011;53900;51.468;-2.586;2023-05-09T10:33:19;1.25;;;1.00;;
66966;SDS011;53900;51.468;-2.586;2023-05-09T10:35:47;2.05;;;1.13;;
66966;SDS011;53900;51.468;-2.586;2023-05-09T10:38:13;3.35;;;1.05;;
66966;SDS011;53900;51.468;-2.586;2023-05-09T10:40:39;2.45;;;0.90;;
66966;SDS011;53900;51.468;-2.586;2023-05-09T10:43:05;1.08;;;0.80;;
66966;SDS011;53900;51.468;-2.586;2023-05-09T10:45:31;1.13;;;0.95;;
66966;SDS011;53900;51.468;-2.586;2023-05-09T10:47:57;2.40;;;0.80;;
66966;SDS011;53900;51.468;-2.586;2023-05-09T10:50:23;1.88;;;0.65;;
66966;SDS011;53900;51.468;-2.586;2023-05-09T10:55:36;1.45;;;1.00;;
66966;SDS011;53900;51.468;-2.586;2023-05-09T11:00:48;2.20;;;1.02;;
66966;SDS011;53900;51.468;-2.586;2023-05-09T11:03:14;1.15;;;0.70;;
66966;SDS011;53900;51.468;-2.586;2023-05-09T11:05:43;1.10;;;0.82;;
66966;SDS011;53900;51.468;-2.586;2023-05-09T11:08:27;1.25;;;0.90;;
66966;SDS011;53900;51.468;-2.586;2023-05-09T11:10:53;1.20;;;0.90;;
66966;SDS011;53900;51.468;-2.586;2023-05-09T11:13:19;1.17;;;0.88;;
66966;SDS011;53900;51.468;-2.586;2023-05-09T11:18:26;1.65;;;1.10;;
66966;SDS011;53900;51.468;-2.586;2023-05-09T11:20:51;4.05;;;0.93;;
66966;SDS011;53900;51.468;-2.586;2023-05-09T11:23:20;3.75;;;1.20;;
66966;SDS011;53900;51.468;-2.586;2023-05-09T11:25:46;1.65;;;1.00;;
66966;SDS011;53900;51.468;-2.586;2023-05-09T11:28:24;1.25;;;1.15;;
66966;SDS011;53900;51.468;-2.586;2023-05-09T11:30:50;1.80;;;0.90;;
66966;SDS011;53900;51.468;-2.586;2023-05-09T11:33:27;1.20;;;1.10;;
66966;SDS011;53900;51.468;-2.586;2023-05-09T11:38:41;1.63;;;1.00;;
66966;SDS011;53900;51.468;-2.586;2023-05-09T11:41:07;2.47;;;1.13;;
66966;SDS011;53900;51.468;-2.586;2023-05-09T11:43:32;1.42;;;1.30;;
66966;SDS011;53900;51.468;-2.586;2023-05-09T11:45:57;2.05;;;1.30;;
66966;SDS011;53900;51.468;-2.586;2023-05-09T11:48:23;4.95;;;1.20;;
66966;SDS011;53900;51.468;-2.586;2023-05-09T11:50:48;1.85;;;1.40;;
66966;SDS011;53900;51.468;-2.586;2023-05-09T11:53:14;1.40;;;1.10;;
66966;SDS011;53900;51.468;-2.586;2023-05-09T11:55:39;5.13;;;1.40;;
66966;SDS011;53900;51.468;-2.586;2023-05-09T11:58:05;2.65;;;1.23;;
66966;SDS011;53900;51.468;-2.586;2023-05-09T12:00:31;1.23;;;1.00;;
66966;SDS011;53900;51.468;-2.586;2023-05-09T12:02:56;4.75;;;1.13;;
66966;SDS011;53900;51.468;-2.586;2023-05-09T12:05:21;2.42;;;1.10;;
66966;SDS011;53900;51.468;-2.586;2023-05-09T12:07:47;1.30;;;1.00;;
66966;SDS011;53900;51.468;-2.586;2023-05-09T12:10:13;4.35;;;1.00;;
66966;SDS011;53900;51.468;-2.586;2023-05-09T12:12:42;1.25;;;1.08;;
66966;SDS011;53900;51.468;-2.586;2023-05-09T12:15:08;1.80;;;1.02;;
66966;SDS011;53900;51.468;-2.586;2023-05-09T12:17:34;0.93;;;0.82;;
66966;SDS011;53900;51.468;-2.586;2023-05-09T12:19:59;1.30;;;0.80;;
66966;SDS011;53900;51.468;-2.586;2023-05-09T12:22:29;1.27;;;1.00;;
66966;SDS011;53900;51.468;-2.586;2023-05-09T12:24:55;1.92;;;1.10;;
66966;SDS011;53900;51.468;-2.586;2023-05-09T12:27:20;2.25;;;1.02;;
66966;SDS011;53900;51.468;-2.586;2023-05-09T12:29:45;1.30;;;1.00;;
66966;SDS011;53900;51.468;-2.586;2023-05-09T12:32:13;0.70;;;0.68;;
66966;SDS011;53900;51.468;-2.586;2023-05-09T12:34:39;3.90;;;0.80;;
66966;SDS011;53900;51.468;-2.586;2023-05-09T12:37:11;1.48;;;0.80;;
66966;SDS011;53900;51.468;-2.586;2023-05-09T12:39:37;1.50;;;0.80;;
66966;SDS011;53900;51.468;-2.586;2023-05-09T12:42:08;1.73;;;0.70;;
66966;SDS011;53900;51.468;-2.586;2023-05-09T12:44:35;0.77;;;0.55;;
66966;SDS011;53900;51.468;-2.586;2023-05-09T12:47:01;0.88;;;0.73;;
66966;SDS011;53900;51.468;-2.586;2023-05-09T12:49:27;0.85;;;0.70;;
66966;SDS011;53900;51.468;-2.586;2023-05-09T12:51:53;0.60;;;0.60;;
66966;SDS011;53900;51.468;-2.586;2023-05-09T12:54:20;0.60;;;0.60;;
66966;SDS011;53900;51.468;-2.586;2023-05-09T12:56:46;0.50;;;0.50;;
66966;SDS011;53900;51.468;-2.586;2023-05-09T12:59:12;2.65;;;0.70;;
66966;SDS011;53900;51.468;-2.586;2023-05-09T13:01:39;0.75;;;0.60;;
66966;SDS011;53900;51.468;-2.586;2023-05-09T13:04:04;3.30;;;0.80;;
66966;SDS011;53900;51.468;-2.586;2023-05-09T13:06:30;6.75;;;0.70;;
66966;SDS011;53900;51.468;-2.586;2023-05-09T13:08:56;1.65;;;0.85;;
66966;SDS011;53900;51.468;-2.586;2023-05-09T13:11:22;1.27;;;0.65;;
66966;SDS011;53900;51.468;-2.586;2023-05-09T13:13:48;0.50;;;0.50;;
66966;SDS011;53900;51.468;-2.586;2023-05-09T13:16:13;3.75;;;0.88;;
66966;SDS011;53900;51.468;-2.586;2023-05-09T13:18:39;0.85;;;0.68;;
66966;SDS011;53900;51.468;-2.586;2023-05-09T13:21:04;0.88;;;0.55;;
66966;SDS011;53900;51.468;-2.586;2023-05-09T13:23:29;2.17;;;0.60;;
66966;SDS011;53900;51.468;-2.586;2023-05-09T13:25:54;0.50;;;0.50;;
66966;SDS011;53900;51.468;-2.586;2023-05-09T13:28:19;1.20;;;0.50;;
66966;SDS011;53900;51.468;-2.586;2023-05-09T13:30:45;1.33;;;0.70;;
66966;SDS011;53900;51.468;-2.586;2023-05-09T13:33:10;3.20;;;0.68;;
66966;SDS011;53900;51.468;-2.586;2023-05-09T13:35:35;1.13;;;0.60;;
66966;SDS011;53900;51.468;-2.586;2023-05-09T13:38:00;1.90;;;0.98;;
66966;SDS011;53900;51.468;-2.586;2023-05-09T13:40:25;1.30;;;0.90;;
66966;SDS011;53900;51.468;-2.586;2023-05-09T13:42:51;1.33;;;0.88;;
66966;SDS011;53900;51.468;-2.586;2023-05-09T13:45:16;2.00;;;1.10;;
66966;SDS011;53900;51.468;-2.586;2023-05-09T13:47:41;4.40;;;1.10;;
66966;SDS011;53900;51.468;-2.586;2023-05-09T13:50:06;3.53;;;1.30;;
66966;SDS011;53900;51.468;-2.586;2023-05-09T13:52:32;2.90;;;1.17;;
66966;SDS011;53900;51.468;-2.586;2023-05-09T13:54:57;6.57;;;1.20;;
66966;SDS011;53900;51.468;-2.586;2023-05-09T13:57:22;2.67;;;1.27;;
66966;SDS011;53900;51.468;-2.586;2023-05-09T13:59:48;4.25;;;1.38;;
66966;SDS011;53900;51.468;-2.586;2023-05-09T14:02:13;2.40;;;1.58;;
66966;SDS011;53900;51.468;-2.586;2023-05-09T14:04:38;2.10;;;1.40;;
66966;SDS011;53900;51.468;-2.586;2023-05-09T14:07:03;2.93;;;1.33;;
66966;SDS011;53900;51.468;-2.586;2023-05-09T14:09:29;4.00;;;1.52;;
66966;SDS011;53900;51.468;-2.586;2023-05-09T14:11:54;5.03;;;1.50;;
66966;SDS011;53900;51.468;-2.586;2023-05-09T14:14:20;3.55;;;1.83;;
66966;SDS011;53900;51.468;-2.586;2023-05-09T14:16:45;3.88;;;1.30;;
66966;SDS011;53900;51.468;-2.586;2023-05-09T14:19:11;3.13;;;1.30;;
66966;SDS011;53900;51.468;-2.586;2023-05-09T14:21:36;2.90;;;1.08;;
66966;SDS011;53900;51.468;-2.586;2023-05-09T14:24:02;3.22;;;1.23;;
66966;SDS011;53900;51.468;-2.586;2023-05-09T14:26:27;1.20;;;1.02;;
66966;SDS011;53900;51.468;-2.586;2023-05-09T14:28:52;4.05;;;1.25;;
66966;SDS011;53900;51.468;-2.586;2023-05-09T14:31:17;4.20;;;1.30;;
66966;SDS011;53900;51.468;-2.586;2023-05-09T14:33:43;6.50;;;3.42;;
66966;SDS011;53900;51.468;-2.586;2023-05-09T14:36:08;1.80;;;1.13;;
66966;SDS011;53900;51.468;-2.586;2023-05-09T14:38:33;2.92;;;1.15;;
66966;SDS011;53900;51.468;-2.586;2023-05-09T14:40:59;4.00;;;1.30;;
66966;SDS011;53900;51.468;-2.586;2023-05-09T14:43:26;2.33;;;0.98;;
66966;SDS011;53900;51.468;-2.586;2023-05-09T14:45:51;3.33;;;1.23;;